Time;durP1;ratioP1;P1;durP2;ratioP2;P2;SDS_P1;SDS_P2;PMS_P1;PMS_P2;Temp;Humidity;BMP_temperature;BMP_pressure;BME280_temperature;BME280_humidity;BME280_pressure;Samples;Min_cycle;Max_cycle;Signal;HPM_P1;HPM_P2
2022/11/21 00:00:15;;;;;;;12.23;2.90;;;;;;;;;;4896837;29;20049;-64
2022/11/21 00:02:41;;;;;;;10.02;2.50;;;;;;;;;;4914450;29;20053;-64
2022/11/21 00:05:08;;;;;;;13.48;2.95;;;;;;;;;;4900636;29;20462;-64
2022/11/21 00:07:34;;;;;;;9.23;2.47;;;;;;;;;;4900214;29;20639;-64
2022/11/21 00:10:01;;;;;;;12.82;2.88;;;;;;;;;;4900550;29;20386;-64
2022/11/21 00:12:27;;;;;;;12.63;3.58;;;;;;;;;;4899274;29;20051;-65
2022/11/21 00:14:54;;;;;;;10.88;3.08;;;;;;;;;;4900455;29;20040;-64
2022/11/21 00:17:20;;;;;;;12.90;3.25;;;;;;;;;;4898751;29;20033;-64
2022/11/21 00:19:47;;;;;;;12.07;3.28;;;;;;;;;;4900476;29;20044;-65
2022/11/21 00:22:13;;;;;;;9.35;3.10;;;;;;;;;;4898992;29;20498;-64
2022/11/21 00:24:39;;;;;;;8.68;2.85;;;;;;;;;;4900319;29;20533;-64
2022/11/21 00:27:06;;;;;;;10.00;2.72;;;;;;;;;;4898938;29;20059;-64
2022/11/21 00:29:32;;;;;;;8.75;2.90;;;;;;;;;;4899513;29;20414;-64
2022/11/21 00:31:59;;;;;;;9.50;2.97;;;;;;;;;;4899961;29;20100;-64
2022/11/21 00:34:25;;;;;;;11.40;3.03;;;;;;;;;;4898900;29;20045;-64
2022/11/21 00:36:52;;;;;;;9.13;2.45;;;;;;;;;;4899998;29;20498;-64
2022/11/21 00:39:18;;;;;;;9.75;2.35;;;;;;;;;;4899857;29;20104;-65
2022/11/21 00:41:45;;;;;;;9.32;2.83;;;;;;;;;;4899873;29;20044;-65
2022/11/21 00:44:11;;;;;;;6.80;2.47;;;;;;;;;;4899851;29;20092;-66
2022/11/21 00:46:37;;;;;;;9.95;2.67;;;;;;;;;;4898657;29;20085;-64
2022/11/21 00:49:04;;;;;;;7.13;2.00;;;;;;;;;;4897887;29;20048;-64
2022/11/21 00:51:30;;;;;;;6.50;2.20;;;;;;;;;;4899654;29;20092;-64
2022/11/21 00:53:56;;;;;;;5.35;2.33;;;;;;;;;;4899836;29;20049;-65
2022/11/21 00:56:23;;;;;;;4.55;2.10;;;;;;;;;;4898375;29;20525;-65
2022/11/21 00:58:49;;;;;;;7.22;1.98;;;;;;;;;;4913488;29;20049;-65
2022/11/21 01:01:16;;;;;;;3.60;1.65;;;;;;;;;;4899249;29;20041;-65
2022/11/21 01:03:42;;;;;;;6.15;1.98;;;;;;;;;;4899569;29;20047;-65
2022/11/21 01:06:10;;;;;;;7.60;2.85;;;;;;;;;;4899453;29;20387;-65
2022/11/21 01:08:38;;;;;;;5.80;2.15;;;;;;;;;;4913365;29;20041;-65
2022/11/21 01:11:05;;;;;;;9.10;2.00;;;;;;;;;;4899362;29;20052;-65
2022/11/21 01:13:32;;;;;;;7.50;2.20;;;;;;;;;;4898546;29;20041;-65
2022/11/21 01:16:06;;;;;;;4.88;2.05;;;;;;;;;;4913774;29;20097;-65
2022/11/21 01:18:33;;;;;;;6.68;2.38;;;;;;;;;;4913266;29;20048;-65
2022/11/21 01:21:03;;;;;;;6.45;1.83;;;;;;;;;;4899181;29;20108;-65
2022/11/21 01:23:29;;;;;;;5.70;1.85;;;;;;;;;;4897997;29;20053;-66
2022/11/21 01:26:03;;;;;;;5.30;1.90;;;;;;;;;;4897866;29;20049;-66
2022/11/21 01:28:29;;;;;;;4.78;1.67;;;;;;;;;;4898571;29;20045;-66
2022/11/21 01:31:06;;;;;;;4.00;1.50;;;;;;;;;;4913864;29;20055;-65
2022/11/21 01:33:33;;;;;;;7.22;1.98;;;;;;;;;;4898071;29;20489;-64
2022/11/21 01:36:28;;;;;;;5.60;1.83;;;;;;;;;;4882336;29;20066;-63
2022/11/21 01:38:56;;;;;;;8.60;2.40;;;;;;;;;;4902041;29;20056;-64
2022/11/21 01:41:30;;;;;;;4.53;2.03;;;;;;;;;;4898927;29;20516;-65
2022/11/21 01:43:57;;;;;;;6.72;2.40;;;;;;;;;;4898906;29;20044;-63
2022/11/21 01:46:23;;;;;;;5.70;1.90;;;;;;;;;;4898869;29;20124;-64
2022/11/21 01:48:54;;;;;;;7.18;1.90;;;;;;;;;;4898160;29;20044;-64
2022/11/21 01:51:26;;;;;;;4.70;1.60;;;;;;;;;;4913369;29;20044;-64
2022/11/21 01:53:58;;;;;;;7.88;2.33;;;;;;;;;;4898999;29;20045;-64
2022/11/21 01:56:25;;;;;;;9.38;1.98;;;;;;;;;;4898620;29;20063;-64
2022/11/21 01:58:54;;;;;;;3.70;2.28;;;;;;;;;;4912465;29;20053;-64
2022/11/21 02:01:21;;;;;;;5.47;1.92;;;;;;;;;;4897197;29;20520;-65
2022/11/21 02:03:47;;;;;;;5.20;1.83;;;;;;;;;;4898547;29;20041;-65
2022/11/21 02:06:14;;;;;;;7.03;1.90;;;;;;;;;;4898419;29;20104;-65
2022/11/21 02:08:41;;;;;;;7.47;2.40;;;;;;;;;;4897832;29;20036;-65
2022/11/21 02:11:15;;;;;;;6.38;2.22;;;;;;;;;;4898358;29;20553;-65
2022/11/21 02:13:41;;;;;;;7.30;1.85;;;;;;;;;;4898363;29;20047;-64
2022/11/21 02:16:08;;;;;;;9.70;2.20;;;;;;;;;;4898213;29;20044;-64
2022/11/21 02:18:34;;;;;;;4.82;1.63;;;;;;;;;;4897614;29;20175;-65
2022/11/21 02:21:21;;;;;;;9.02;2.53;;;;;;;;;;4898649;29;20049;-64
2022/11/21 02:23:52;;;;;;;5.10;1.83;;;;;;;;;;4912306;29;20506;-63
2022/11/21 02:26:25;;;;;;;4.30;2.08;;;;;;;;;;4897597;29;20048;-64
2022/11/21 02:28:52;;;;;;;6.20;1.63;;;;;;;;;;4897276;29;20044;-64
2022/11/21 02:31:18;;;;;;;3.55;1.52;;;;;;;;;;4897605;29;20490;-64
2022/11/21 02:33:45;;;;;;;3.22;1.40;;;;;;;;;;4912624;29;20099;-64
2022/11/21 02:36:50;;;;;;;2.75;1.30;;;;;;;;;;4898028;29;20040;-64
2022/11/21 02:39:16;;;;;;;;;;;;;;;;;;4876483;29;20049;-64
2022/11/21 02:41:44;;;;;;;1.85;1.08;;;;;;;;;;4876800;29;19928;-64
2022/11/21 02:44:18;;;;;;;4.32;1.13;;;;;;;;;;4886825;29;20061;-64
2022/11/21 02:46:46;;;;;;;3.38;1.10;;;;;;;;;;4897767;29;20051;-64
2022/11/21 02:49:13;;;;;;;2.40;1.02;;;;;;;;;;4897122;29;20076;-64
2022/11/21 02:51:39;;;;;;;2.00;1.02;;;;;;;;;;4897450;29;20425;-64
2022/11/21 02:54:06;;;;;;;2.70;1.10;;;;;;;;;;4897599;29;20048;-64
2022/11/21 02:56:32;;;;;;;4.30;1.90;;;;;;;;;;4897582;29;20060;-64
2022/11/21 02:58:59;;;;;;;1.85;1.38;;;;;;;;;;4895838;29;20059;-64
2022/11/21 03:01:25;;;;;;;1.92;0.88;;;;;;;;;;4896004;29;20048;-64
2022/11/21 03:03:52;;;;;;;1.02;0.90;;;;;;;;;;4897501;29;20040;-64
2022/11/21 03:06:18;;;;;;;2.80;0.93;;;;;;;;;;4897793;29;20056;-64
2022/11/21 03:08:45;;;;;;;2.97;1.23;;;;;;;;;;4896606;29;20501;-64
2022/11/21 03:11:11;;;;;;;2.08;1.00;;;;;;;;;;4897247;29;20044;-64
2022/11/21 03:13:38;;;;;;;3.35;1.27;;;;;;;;;;4896118;29;20155;-64
2022/11/21 03:16:04;;;;;;;2.20;0.90;;;;;;;;;;4897503;29;20455;-64
2022/11/21 03:18:30;;;;;;;1.73;1.02;;;;;;;;;;4896659;29;20045;-64
2022/11/21 03:20:57;;;;;;;3.30;1.02;;;;;;;;;;4897157;29;20048;-64
2022/11/21 03:23:23;;;;;;;3.05;1.02;;;;;;;;;;4897075;29;20410;-65
2022/11/21 03:25:50;;;;;;;2.17;0.95;;;;;;;;;;4897196;29;20040;-66
2022/11/21 03:28:16;;;;;;;2.75;0.80;;;;;;;;;;4896575;29;20494;-65
2022/11/21 03:30:43;;;;;;;1.73;0.80;;;;;;;;;;4897065;29;20036;-65
2022/11/21 03:33:09;;;;;;;1.65;0.70;;;;;;;;;;4897129;29;20457;-65
2022/11/21 03:35:36;;;;;;;1.02;0.80;;;;;;;;;;4896650;29;20450;-65
2022/11/21 03:38:02;;;;;;;2.35;0.90;;;;;;;;;;4896465;29;20115;-65
2022/11/21 03:40:28;;;;;;;1.50;0.82;;;;;;;;;;4897043;29;20518;-65
2022/11/21 03:42:55;;;;;;;1.38;0.80;;;;;;;;;;4896986;29;20079;-65
2022/11/21 03:45:21;;;;;;;1.10;0.75;;;;;;;;;;4897023;29;20092;-65
2022/11/21 03:47:48;;;;;;;2.17;0.88;;;;;;;;;;4896502;29;20048;-64
2022/11/21 03:50:17;;;;;;;1.67;0.77;;;;;;;;;;4896787;29;20055;-66
2022/11/21 03:52:44;;;;;;;2.55;0.85;;;;;;;;;;4896882;29;20427;-65
2022/11/21 03:55:10;;;;;;;1.20;0.80;;;;;;;;;;4896906;29;20071;-65
2022/11/21 03:57:37;;;;;;;2.90;1.33;;;;;;;;;;4896758;29;20052;-64
2022/11/21 04:00:04;;;;;;;2.40;1.35;;;;;;;;;;4897882;29;20109;-64
2022/11/21 04:02:31;;;;;;;2.53;1.40;;;;;;;;;;4897341;29;20561;-64
2022/11/21 04:04:57;;;;;;;4.40;1.60;;;;;;;;;;4897159;29;20049;-65
2022/11/21 04:07:24;;;;;;;3.72;1.77;;;;;;;;;;4896296;29;20048;-65
2022/11/21 04:09:51;;;;;;;6.95;1.48;;;;;;;;;;4896897;29;20041;-65
2022/11/21 04:12:17;;;;;;;3.90;1.92;;;;;;;;;;4897228;29;20040;-65
2022/11/21 04:14:44;;;;;;;4.03;1.70;;;;;;;;;;4897781;29;20044;-65
2022/11/21 04:17:10;;;;;;;3.33;1.70;;;;;;;;;;4897608;29;20048;-64
2022/11/21 04:19:36;;;;;;;1.98;1.33;;;;;;;;;;4897090;29;20501;-66
2022/11/21 04:22:03;;;;;;;6.25;1.63;;;;;;;;;;4912208;29;20052;-65
2022/11/21 04:24:29;;;;;;;4.40;2.05;;;;;;;;;;4896494;29;20057;-64
2022/11/21 04:26:56;;;;;;;6.60;2.22;;;;;;;;;;4898184;29;20050;-65
2022/11/21 04:29:22;;;;;;;4.95;1.80;;;;;;;;;;4896679;29;20390;-64
2022/11/21 04:31:49;;;;;;;4.85;1.65;;;;;;;;;;4898159;29;20036;-66
2022/11/21 04:34:15;;;;;;;3.05;1.80;;;;;;;;;;4912485;29;20056;-65
2022/11/21 04:36:41;;;;;;;3.83;1.75;;;;;;;;;;4911847;29;20060;-65
2022/11/21 04:39:08;;;;;;;4.95;1.77;;;;;;;;;;4897208;29;20052;-64
2022/11/21 04:41:35;;;;;;;6.25;1.88;;;;;;;;;;4897422;29;20049;-64
2022/11/21 04:44:02;;;;;;;4.00;2.05;;;;;;;;;;4896865;29;20063;-65
2022/11/21 04:46:28;;;;;;;2.88;1.85;;;;;;;;;;4897056;29;20100;-64
2022/11/21 04:48:54;;;;;;;9.18;1.90;;;;;;;;;;4897765;29;20110;-65
2022/11/21 04:51:21;;;;;;;5.78;1.95;;;;;;;;;;4899739;29;20063;-65
2022/11/21 04:53:47;;;;;;;5.03;1.90;;;;;;;;;;4899765;29;20453;-64
2022/11/21 04:56:15;;;;;;;5.75;1.95;;;;;;;;;;4898573;29;20040;-64
2022/11/21 04:58:43;;;;;;;4.45;2.08;;;;;;;;;;4898050;29;20133;-64
2022/11/21 05:01:09;;;;;;;4.30;2.00;;;;;;;;;;5308008;23;20023;-62
2022/11/21 05:03:36;;;;;;;7.15;2.47;;;;;;;;;;4892330;29;20044;-62
2022/11/21 05:06:02;;;;;;;5.30;2.83;;;;;;;;;;4880817;29;20052;-62
2022/11/21 05:08:29;;;;;;;8.32;2.72;;;;;;;;;;4880317;29;20055;-62
2022/11/21 05:13:40;;;;;;;4.95;2.40;;;;;;;;;;4862208;29;20472;-62
2022/11/21 05:16:07;;;;;;;6.57;2.42;;;;;;;;;;4862078;29;20069;-62
2022/11/21 05:18:33;;;;;;;7.35;1.80;;;;;;;;;;4860326;29;20045;-62
2022/11/21 05:21:00;;;;;;;3.75;1.95;;;;;;;;;;4876517;29;20049;-62
2022/11/21 05:23:26;;;;;;;4.10;1.90;;;;;;;;;;4860774;29;20475;-61
2022/11/21 05:25:53;;;;;;;3.33;1.83;;;;;;;;;;4876240;29;20082;-62
2022/11/21 05:28:19;;;;;;;6.47;1.88;;;;;;;;;;4861829;29;20110;-62
2022/11/21 05:30:46;;;;;;;5.30;1.73;;;;;;;;;;4875760;29;20053;-62
2022/11/21 05:33:12;;;;;;;6.68;2.05;;;;;;;;;;4861954;29;20109;-62
2022/11/21 05:35:38;;;;;;;6.25;2.03;;;;;;;;;;4861658;29;20045;-62
2022/11/21 05:38:08;;;;;;;6.10;2.20;;;;;;;;;;4859969;29;20045;-62
2022/11/21 05:40:35;;;;;;;3.92;1.73;;;;;;;;;;4861712;29;20456;-62
2022/11/21 05:45:49;;;;;;;5.75;2.30;;;;;;;;;;4875897;29;20101;-62
2022/11/21 05:48:16;;;;;;;4.15;2.55;;;;;;;;;;4859823;29;20430;-62
2022/11/21 05:50:45;;;;;;;7.68;3.15;;;;;;;;;;4861241;29;20045;-62
2022/11/21 05:53:12;;;;;;;12.07;3.70;;;;;;;;;;4860197;29;20053;-61
2022/11/21 05:55:38;;;;;;;10.82;3.72;;;;;;;;;;4861407;29;20414;-61
2022/11/21 05:58:05;;;;;;;8.05;3.25;;;;;;;;;;4860943;29;20049;-62
2022/11/21 06:00:32;;;;;;;11.32;3.22;;;;;;;;;;4861195;29;20060;-62
2022/11/21 06:05:43;;;;;;;7.50;2.95;;;;;;;;;;4861183;29;20426;-63
2022/11/21 06:08:10;;;;;;;8.02;3.03;;;;;;;;;;4860591;29;20050;-62
2022/11/21 06:10:36;;;;;;;6.00;2.92;;;;;;;;;;4861286;29;20444;-62
2022/11/21 06:13:02;;;;;;;6.55;2.67;;;;;;;;;;4861336;29;20433;-62
2022/11/21 06:15:29;;;;;;;6.20;3.55;;;;;;;;;;4875371;29;20049;-63
2022/11/21 06:17:58;;;;;;;5.78;3.10;;;;;;;;;;4874533;29;20072;-62
2022/11/21 06:20:25;;;;;;;13.00;3.83;;;;;;;;;;4861150;29;20407;-62
2022/11/21 06:22:52;;;;;;;5.68;2.70;;;;;;;;;;4874953;29;20057;-62
2022/11/21 06:25:18;;;;;;;7.82;2.80;;;;;;;;;;4875106;29;20071;-62
2022/11/21 06:27:45;;;;;;;7.90;2.97;;;;;;;;;;4860544;29;20423;-62
2022/11/21 06:30:11;;;;;;;5.53;2.60;;;;;;;;;;4860806;29;20077;-62
2022/11/21 06:32:40;;;;;;;5.80;2.20;;;;;;;;;;4874885;29;20061;-62
2022/11/21 06:35:07;;;;;;;6.13;2.72;;;;;;;;;;4860603;29;20041;-62
2022/11/21 06:37:33;;;;;;;10.23;3.00;;;;;;;;;;4858861;29;20038;-62
2022/11/21 06:40:00;;;;;;;6.95;2.63;;;;;;;;;;4860482;29;20056;-62
2022/11/21 06:42:26;;;;;;;6.45;2.65;;;;;;;;;;4875041;29;20102;-62
2022/11/21 06:44:52;;;;;;;8.90;2.90;;;;;;;;;;4860471;29;20467;-62
2022/11/21 06:47:19;;;;;;;3.67;2.05;;;;;;;;;;4874106;29;20046;-62
2022/11/21 06:49:45;;;;;;;4.25;2.10;;;;;;;;;;4859283;29;20480;-62
2022/11/21 06:52:12;;;;;;;7.00;2.70;;;;;;;;;;4860363;29;20050;-65
2022/11/21 06:54:38;;;;;;;9.95;2.05;;;;;;;;;;4844194;29;20387;-62
2022/11/21 06:57:04;;;;;;;9.35;2.65;;;;;;;;;;4860467;29;20422;-62
2022/11/21 06:59:31;;;;;;;4.22;2.05;;;;;;;;;;4858846;29;20052;-62
2022/11/21 07:01:57;;;;;;;9.90;2.65;;;;;;;;;;4874420;29;20114;-62
2022/11/21 07:04:23;;;;;;;5.45;2.38;;;;;;;;;;4874250;29;20049;-62
2022/11/21 07:06:50;;;;;;;7.38;2.38;;;;;;;;;;4858919;29;20053;-62
2022/11/21 07:09:17;;;;;;;4.80;2.13;;;;;;;;;;4860107;29;20065;-61
2022/11/21 07:13:20;;;;;;;3.58;2.03;;;;;;;;;;4872599;29;20045;-61
2022/11/21 07:14:45;;;;;;;4.45;2.20;;;;;;;;;;4860167;29;20383;-61
2022/11/21 07:17:12;;;;;;;7.45;2.28;;;;;;;;;;4860118;29;20102;-61
2022/11/21 07:19:38;;;;;;;10.13;3.03;;;;;;;;;;4874178;29;20050;-61
2022/11/21 07:22:07;;;;;;;5.60;2.58;;;;;;;;;;4874486;29;20049;-61
2022/11/21 07:24:33;;;;;;;6.90;2.00;;;;;;;;;;4859335;29;20051;-62
2022/11/21 07:27:00;;;;;;;4.97;2.13;;;;;;;;;;4860697;29;20048;-62
2022/11/21 07:29:27;;;;;;;6.43;2.55;;;;;;;;;;4857900;29;20105;-61
2022/11/21 07:31:54;;;;;;;9.68;2.78;;;;;;;;;;4860137;29;20460;-60
2022/11/21 07:34:20;;;;;;;3.50;2.17;;;;;;;;;;4874357;29;20046;-61
2022/11/21 07:36:47;;;;;;;7.25;3.65;;;;;;;;;;4843513;29;20082;-61
2022/11/21 07:39:13;;;;;;;8.00;2.80;;;;;;;;;;4873536;29;20045;-61
2022/11/21 07:41:39;;;;;;;6.95;3.05;;;;;;;;;;4843251;29;20049;-61
2022/11/21 07:44:06;;;;;;;8.85;2.85;;;;;;;;;;4859971;29;20050;-60
2022/11/21 07:46:33;;;;;;;7.18;2.97;;;;;;;;;;4859963;29;20057;-61
2022/11/21 07:48:59;;;;;;;5.75;2.65;;;;;;;;;;4873690;29;20060;-62
2022/11/21 07:51:29;;;;;;;6.57;1.73;;;;;;;;;;4873639;29;20045;-61
2022/11/21 07:53:55;;;;;;;8.60;2.25;;;;;;;;;;4843868;29;20057;-60
2022/11/21 07:56:25;;;;;;;6.75;3.25;;;;;;;;;;4860101;29;20037;-61
2022/11/21 07:58:51;;;;;;;6.50;1.80;;;;;;;;;;4858907;29;20054;-60
2022/11/21 08:01:18;;;;;;;6.18;2.97;;;;;;;;;;4860155;29;20053;-60
2022/11/21 08:03:44;;;;;;;7.28;2.35;;;;;;;;;;4860137;29;20085;-61
2022/11/21 08:06:11;;;;;;;7.13;2.75;;;;;;;;;;4860305;29;20511;-61
2022/11/21 08:08:37;;;;;;;8.05;2.95;;;;;;;;;;4859890;29;20046;-61
2022/11/21 08:11:04;;;;;;;4.18;1.70;;;;;;;;;;4859299;29;20046;-61
2022/11/21 08:13:31;;;;;;;8.05;1.90;;;;;;;;;;4860589;29;20045;-61
2022/11/21 08:15:57;;;;;;;6.40;2.20;;;;;;;;;;4843831;29;20571;-61
2022/11/21 08:18:24;;;;;;;4.00;1.88;;;;;;;;;;4859627;29;20045;-61
2022/11/21 08:20:50;;;;;;;7.70;2.55;;;;;;;;;;4859086;29;20061;-62
2022/11/21 08:23:16;;;;;;;4.97;2.40;;;;;;;;;;4861796;29;20109;-61
2022/11/21 08:25:44;;;;;;;7.72;2.55;;;;;;;;;;4878588;29;20056;-61
2022/11/21 08:28:10;;;;;;;10.35;3.13;;;;;;;;;;4863494;29;20567;-61
2022/11/21 08:30:37;;;;;;;5.85;2.50;;;;;;;;;;4863684;29;20049;-61
2022/11/21 08:33:03;;;;;;;7.05;2.60;;;;;;;;;;4877624;29;20045;-61
2022/11/21 08:35:30;;;;;;;9.05;2.60;;;;;;;;;;4862067;29;20057;-61
2022/11/21 08:37:57;;;;;;;8.55;2.92;;;;;;;;;;4861472;29;20396;-61
2022/11/21 08:40:24;;;;;;;7.90;2.85;;;;;;;;;;4861946;29;20064;-61
2022/11/21 08:42:57;;;;;;;8.30;2.80;;;;;;;;;;4863236;29;20084;-61
2022/11/21 08:45:24;;;;;;;9.73;2.67;;;;;;;;;;4863336;29;20106;-61
2022/11/21 08:47:52;;;;;;;6.93;2.08;;;;;;;;;;4861574;29;20053;-61
2022/11/21 08:50:18;;;;;;;7.80;2.58;;;;;;;;;;4863053;29;20042;-61
2022/11/21 08:52:45;;;;;;;6.75;2.28;;;;;;;;;;4863158;29;20049;-61
2022/11/21 08:55:12;;;;;;;6.82;2.42;;;;;;;;;;4863071;29;20069;-61
2022/11/21 08:57:38;;;;;;;4.63;1.67;;;;;;;;;;4861309;29;20053;-61
2022/11/21 09:00:05;;;;;;;8.35;2.40;;;;;;;;;;4862027;29;20144;-61
2022/11/21 09:02:32;;;;;;;8.90;1.90;;;;;;;;;;4846731;29;20451;-61
2022/11/21 09:04:58;;;;;;;6.38;2.00;;;;;;;;;;4863507;29;20394;-61
2022/11/21 09:07:25;;;;;;;10.50;2.38;;;;;;;;;;4861476;29;20045;-61
2022/11/21 09:09:51;;;;;;;8.25;2.95;;;;;;;;;;4862649;29;20045;-62
2022/11/21 09:12:18;;;;;;;7.85;2.55;;;;;;;;;;4876758;29;20057;-61
2022/11/21 09:20:14;;;;;;;6.78;2.50;;;;;;;;;;4863649;29;20049;-60
2022/11/21 09:22:41;;;;;;;11.55;2.67;;;;;;;;;;4877228;29;20054;-61
2022/11/21 09:25:08;;;;;;;7.10;2.70;;;;;;;;;;4861956;29;20046;-61
2022/11/21 09:27:34;;;;;;;8.30;2.25;;;;;;;;;;4862522;29;20053;-61
2022/11/21 09:30:01;;;;;;;10.85;2.53;;;;;;;;;;4863776;29;20529;-61
2022/11/21 09:32:27;;;;;;;12.45;2.42;;;;;;;;;;4862979;29;20105;-60
2022/11/21 09:34:53;;;;;;;4.82;2.20;;;;;;;;;;4862941;29;20456;-61
2022/11/21 09:37:20;;;;;;;7.95;2.05;;;;;;;;;;4863339;29;20056;-61
2022/11/21 09:39:46;;;;;;;8.20;2.20;;;;;;;;;;4864915;29;20056;-61
2022/11/21 09:42:17;;;;;;;3.95;2.25;;;;;;;;;;4847558;29;20503;-62
2022/11/21 09:44:44;;;;;;;6.03;1.98;;;;;;;;;;4877377;29;20085;-62
2022/11/21 09:47:22;;;;;;;6.63;2.67;;;;;;;;;;4878423;29;20049;-62
2022/11/21 09:49:58;;;;;;;8.75;2.63;;;;;;;;;;4877190;29;20114;-62
2022/11/21 09:52:29;;;;;;;7.65;2.67;;;;;;;;;;4863070;29;20050;-62
2022/11/21 09:54:59;;;;;;;8.10;2.08;;;;;;;;;;4861629;29;20093;-62
2022/11/21 09:57:25;;;;;;;9.82;2.70;;;;;;;;;;4862813;29;20048;-62
2022/11/21 09:59:59;;;;;;;;;;;;;;;;;;4865725;29;20105;-63
2022/11/21 10:02:26;;;;;;;7.88;2.65;;;;;;;;;;4864811;29;19931;-62
2022/11/21 10:04:53;;;;;;;9.20;2.22;;;;;;;;;;4864878;29;20094;-62
2022/11/21 10:07:23;;;;;;;8.13;2.35;;;;;;;;;;4864246;29;20083;-62
2022/11/21 10:10:02;;;;;;;6.25;2.58;;;;;;;;;;4879163;29;20057;-62
2022/11/21 10:12:44;;;;;;;4.22;1.67;;;;;;;;;;4879291;29;20042;-63
2022/11/21 10:15:23;;;;;;;7.63;2.30;;;;;;;;;;4865196;29;20061;-62
2022/11/21 10:18:08;;;;;;;7.55;2.67;;;;;;;;;;4864007;29;20056;-62
2022/11/21 10:20:42;;;;;;;7.50;2.30;;;;;;;;;;4881219;29;20049;-61
2022/11/21 10:23:35;;;;;;;9.82;2.65;;;;;;;;;;4881205;29;20045;-61
2022/11/21 10:26:13;;;;;;;7.57;2.30;;;;;;;;;;4837082;29;20408;-61
2022/11/21 10:28:39;;;;;;;9.68;2.75;;;;;;;;;;4864930;29;20065;-65
2022/11/21 10:31:08;;;;;;;8.88;3.00;;;;;;;;;;4862336;29;20455;-61
2022/11/21 10:33:39;;;;;;;5.70;2.10;;;;;;;;;;4875178;29;20094;-60
2022/11/21 10:36:24;;;;;;;7.47;2.70;;;;;;;;;;4861336;29;20045;-62
2022/11/21 10:38:53;;;;;;;9.27;2.38;;;;;;;;;;4861415;29;20101;-61
2022/11/21 10:41:29;;;;;;;9.25;2.15;;;;;;;;;;4860639;29;20056;-61
2022/11/21 10:46:56;;;;;;;12.77;5.57;;;;;;;;;;4860356;29;20061;-61
2022/11/21 10:49:24;;;;;;;9.57;4.18;;;;;;;;;;4860373;29;20085;-61
2022/11/21 10:52:04;;;;;;;8.05;2.78;;;;;;;;;;4859395;29;20046;-61
2022/11/21 10:54:31;;;;;;;11.73;2.78;;;;;;;;;;4860847;29;20392;-61
2022/11/21 10:57:12;;;;;;;7.70;2.25;;;;;;;;;;4860190;29;20049;-61
2022/11/21 10:59:38;;;;;;;5.65;2.55;;;;;;;;;;4859832;29;20045;-61
2022/11/21 11:02:11;;;;;;;7.05;2.92;;;;;;;;;;4859167;29;20049;-61
2022/11/21 11:04:37;;;;;;;10.10;3.10;;;;;;;;;;4874722;29;20117;-61
2022/11/21 11:07:21;;;;;;;11.60;3.60;;;;;;;;;;4858866;29;20090;-61
2022/11/21 11:09:51;;;;;;;5.93;2.65;;;;;;;;;;4860735;29;20255;-61
2022/11/21 11:15:21;;;;;;;9.65;3.30;;;;;;;;;;4860115;29;20109;-61
2022/11/21 11:17:58;;;;;;;11.27;4.13;;;;;;;;;;4873929;29;20454;-61
2022/11/21 11:20:36;;;;;;;7.10;3.50;;;;;;;;;;4860250;29;20054;-61
2022/11/21 11:23:18;;;;;;;8.73;2.58;;;;;;;;;;4858828;29;20045;-61
2022/11/21 11:25:49;;;;;;;7.85;2.33;;;;;;;;;;4874270;29;20057;-61
2022/11/21 11:28:18;;;;;;;6.43;2.70;;;;;;;;;;4859307;29;20045;-61
2022/11/21 11:30:45;;;;;;;9.40;2.70;;;;;;;;;;4859909;29;20054;-61
2022/11/21 11:33:30;;;;;;;8.52;3.35;;;;;;;;;;4859771;29;20081;-61
2022/11/21 11:36:03;;;;;;;9.05;3.80;;;;;;;;;;4860023;29;20041;-62
2022/11/21 11:38:31;;;;;;;17.30;5.63;;;;;;;;;;4858460;29;20094;-61
2022/11/21 11:41:00;;;;;;;13.82;4.82;;;;;;;;;;4859854;29;20711;-61
2022/11/21 11:52:28;;;;;;;9.57;3.95;;;;;;;;;;4859891;29;20045;-61
2022/11/21 11:54:58;;;;;;;14.20;4.38;;;;;;;;;;4859850;29;20045;-62
2022/11/21 11:57:26;;;;;;;9.38;3.22;;;;;;;;;;4860277;29;20053;-62
2022/11/21 12:00:00;;;;;;;11.02;3.28;;;;;;;;;;4863473;29;20041;-62
2022/11/21 12:02:57;;;;;;;10.40;3.17;;;;;;;;;;4863375;29;20049;-61
2022/11/21 12:05:25;;;;;;;9.68;3.35;;;;;;;;;;4863348;29;20065;-61
2022/11/21 12:08:14;;;;;;;17.23;5.75;;;;;;;;;;4861882;29;20045;-61
2022/11/21 12:15:47;;;;;;;14.10;4.53;;;;;;;;;;4863379;29;20053;-61
2022/11/21 12:17:03;;;;;;;10.25;3.67;;;;;;;;;;4863091;29;20041;-61
2022/11/21 12:19:30;;;;;;;9.63;3.15;;;;;;;;;;4861847;29;20418;-66
2022/11/21 12:21:56;;;;;;;7.70;3.40;;;;;;;;;;4863303;29;20049;-61
2022/11/21 12:24:23;;;;;;;7.65;3.22;;;;;;;;;;4863058;29;20037;-62
2022/11/21 12:26:55;;;;;;;8.20;2.70;;;;;;;;;;4863028;29;20048;-62
2022/11/21 12:29:39;;;;;;;11.25;3.15;;;;;;;;;;4862138;29;20510;-61
2022/11/21 12:32:06;;;;;;;8.30;2.50;;;;;;;;;;4862941;29;20093;-62
2022/11/21 12:34:45;;;;;;;8.07;2.78;;;;;;;;;;4863058;29;20053;-62
2022/11/21 12:37:15;;;;;;;13.63;2.97;;;;;;;;;;4863646;29;20428;-61
2022/11/21 12:39:52;;;;;;;10.07;3.33;;;;;;;;;;4862664;29;20494;-61
2022/11/21 12:42:48;;;;;;;11.57;2.85;;;;;;;;;;4862876;29;20494;-61
2022/11/21 12:45:28;;;;;;;10.02;3.25;;;;;;;;;;4862906;29;20089;-61
2022/11/21 12:57:01;;;;;;;12.75;2.63;;;;;;;;;;4862717;29;20057;-61
2022/11/21 12:59:29;;;;;;;8.00;2.72;;;;;;;;;;4860982;29;20053;-61
2022/11/21 13:02:16;;;;;;;25.67;3.97;;;;;;;;;;4877510;29;20057;-61
2022/11/21 13:04:44;;;;;;;10.43;3.78;;;;;;;;;;4862421;29;20073;-61
2022/11/21 13:07:10;;;;;;;13.43;3.08;;;;;;;;;;4861226;29;20555;-63
2022/11/21 13:09:40;;;;;;;8.05;2.78;;;;;;;;;;4859535;29;20054;-61
2022/11/21 13:12:06;;;;;;;7.82;2.30;;;;;;;;;;4876797;29;20054;-62
2022/11/21 13:14:34;;;;;;;14.02;2.78;;;;;;;;;;4862128;29;20046;-62
2022/11/21 13:17:19;;;;;;;12.90;3.50;;;;;;;;;;4876310;29;20053;-63
2022/11/21 13:20:00;;;;;;;18.88;11.55;;;;;;;;;;4876463;29;20097;-62
2022/11/21 13:22:36;;;;;;;11.02;2.92;;;;;;;;;;4862368;29;20406;-61
2022/11/21 13:25:08;;;;;;;9.73;3.10;;;;;;;;;;4862160;29;20499;-62
2022/11/21 13:27:36;;;;;;;22.48;5.95;;;;;;;;;;4861432;29;20057;-61
2022/11/21 13:30:07;;;;;;;11.48;3.33;;;;;;;;;;4862063;29;20141;-61
2022/11/21 13:32:48;;;;;;;10.63;2.65;;;;;;;;;;4861870;29;20052;-61
2022/11/21 13:35:15;;;;;;;9.90;2.50;;;;;;;;;;4860916;29;20050;-61
2022/11/21 13:37:50;;;;;;;10.20;2.10;;;;;;;;;;4861215;29;20460;-62
2022/11/21 13:40:26;;;;;;;37.40;8.35;;;;;;;;;;4876255;29;20464;-62
2022/11/21 13:43:08;;;;;;;17.38;4.43;;;;;;;;;;4861797;29;20057;-61
2022/11/21 13:45:57;;;;;;;25.88;5.47;;;;;;;;;;4873756;29;20069;-62
2022/11/21 13:48:30;;;;;;;29.45;6.35;;;;;;;;;;4861591;29;20404;-62
2022/11/21 13:50:56;;;;;;;27.17;5.97;;;;;;;;;;4876281;29;20415;-61
2022/11/21 13:53:43;;;;;;;12.13;3.08;;;;;;;;;;4861371;29;20050;-61
2022/11/21 13:56:10;;;;;;;8.05;2.95;;;;;;;;;;4833033;29;20113;-62
2022/11/21 13:58:49;;;;;;;11.77;2.63;;;;;;;;;;4875357;29;20053;-62
2022/11/21 14:01:34;;;;;;;7.80;2.20;;;;;;;;;;4861477;29;20049;-61
2022/11/21 14:04:23;;;;;;;6.55;2.40;;;;;;;;;;4861625;29;20102;-62
2022/11/21 14:06:50;;;;;;;9.00;2.70;;;;;;;;;;4861449;29;20093;-61
2022/11/21 14:09:29;;;;;;;22.98;4.53;;;;;;;;;;4860697;29;20041;-62
2022/11/21 14:11:58;;;;;;;13.27;3.15;;;;;;;;;;4861099;29;20045;-61
2022/11/21 14:14:27;;;;;;;15.80;4.18;;;;;;;;;;4875320;29;20041;-62
2022/11/21 14:17:00;;;;;;;8.63;3.05;;;;;;;;;;4861149;29;20047;-61
2022/11/21 14:19:28;;;;;;;13.30;3.83;;;;;;;;;;4860580;29;20046;-62
2022/11/21 14:21:54;;;;;;;6.75;2.58;;;;;;;;;;4859651;29;20053;-61
2022/11/21 14:24:21;;;;;;;8.60;2.95;;;;;;;;;;4861093;29;20045;-62
2022/11/21 14:26:49;;;;;;;12.77;3.20;;;;;;;;;;4875099;29;20518;-60
2022/11/21 14:29:25;;;;;;;14.32;5.15;;;;;;;;;;4860280;29;20041;-61
2022/11/21 14:31:52;;;;;;;8.68;2.72;;;;;;;;;;4874654;29;20045;-60
2022/11/21 14:34:25;;;;;;;8.88;2.42;;;;;;;;;;4860569;29;20456;-60
2022/11/21 14:36:52;;;;;;;9.63;2.33;;;;;;;;;;4860644;29;20045;-60
2022/11/21 14:39:20;;;;;;;6.07;2.20;;;;;;;;;;4874315;29;20056;-60
2022/11/21 14:42:04;;;;;;;6.53;2.13;;;;;;;;;;4874809;29;20064;-61
2022/11/21 14:44:30;;;;;;;9.50;2.55;;;;;;;;;;4860171;29;20050;-61
2022/11/21 14:47:14;;;;;;;7.65;2.90;;;;;;;;;;4860520;29;20054;-60
2022/11/21 14:49:51;;;;;;;11.00;3.17;;;;;;;;;;4860395;29;20078;-61
2022/11/21 14:52:29;;;;;;;10.27;3.00;;;;;;;;;;4860173;29;20042;-61
2022/11/21 14:54:57;;;;;;;8.02;2.60;;;;;;;;;;4858942;29;20124;-60
2022/11/21 14:57:43;;;;;;;7.75;2.25;;;;;;;;;;4859638;29;20048;-60
2022/11/21 15:00:14;;;;;;;10.75;2.67;;;;;;;;;;4860730;29;20106;-61
2022/11/21 15:03:01;;;;;;;6.22;2.30;;;;;;;;;;4860243;29;20050;-61
2022/11/21 15:05:29;;;;;;;6.90;2.22;;;;;;;;;;4860132;29;20101;-61
2022/11/21 15:08:21;;;;;;;12.35;2.72;;;;;;;;;;4859845;29;20045;-61
2022/11/21 15:11:07;;;;;;;11.15;2.88;;;;;;;;;;4859115;29;20482;-61
2022/11/21 15:13:34;;;;;;;7.10;2.22;;;;;;;;;;4860114;29;20045;-60
2022/11/21 15:16:22;;;;;;;12.43;2.65;;;;;;;;;;4860377;29;20038;-60
2022/11/21 15:18:49;;;;;;;9.32;3.35;;;;;;;;;;4860358;29;20053;-60
2022/11/21 15:21:15;;;;;;;10.50;3.95;;;;;;;;;;4861053;29;20095;-60
2022/11/21 15:23:43;;;;;;;13.23;4.25;;;;;;;;;;4859726;29;20041;-60
2022/11/21 15:26:29;;;;;;;13.50;4.13;;;;;;;;;;4859752;29;20061;-60
2022/11/21 15:28:56;;;;;;;10.48;3.65;;;;;;;;;;4860287;29;20492;-60
2022/11/21 15:31:23;;;;;;;23.05;4.82;;;;;;;;;;4860802;29;20046;-59
2022/11/21 15:34:00;;;;;;;12.90;4.10;;;;;;;;;;4860415;29;20693;-60
2022/11/21 15:36:59;;;;;;;10.68;3.30;;;;;;;;;;4860519;29;20076;-60